sensor_id;sensor_type;location;lat;lon;timestamp;pressure;altitude;pressure_sealevel;temperature;humidity
36138;BME280;67787;50.074;21.904;2023-07-29T06:03:23;98590.55;;;20.99;73.60
36138;BME280;67787;50.074;21.904;2023-07-29T06:05:51;98585.85;;;20.99;73.56
36138;BME280;67787;50.074;21.904;2023-07-29T06:08:21;98586.45;;;21.01;73.44
36138;BME280;67787;50.074;21.904;2023-07-29T06:10:48;98588.55;;;21.06;73.73
36138;BME280;67787;50.074;21.904;2023-07-29T06:13:15;98594.02;;;21.15;73.68
36138;BME280;67787;50.074;21.904;2023-07-29T06:15:46;98598.48;;;21.21;73.73
36138;BME280;67787;50.074;21.904;2023-07-29T06:18:13;98600.33;;;21.23;73.53
36138;BME280;67787;50.074;21.904;2023-07-29T06:20:41;98604.73;;;21.27;73.31
36138;BME280;67787;50.074;21.904;2023-07-29T06:23:08;98600.25;;;21.31;73.08
36138;BME280;67787;50.074;21.904;2023-07-29T06:25:35;98591.70;;;21.33;73.26
36138;BME280;67787;50.074;21.904;2023-07-29T06:28:02;98594.89;;;21.37;73.23
36138;BME280;67787;50.074;21.904;2023-07-29T06:30:30;98594.63;;;21.39;73.01
36138;BME280;67787;50.074;21.904;2023-07-29T06:32:57;98598.13;;;21.41;73.00
36138;BME280;67787;50.074;21.904;2023-07-29T06:35:25;98597.74;;;21.44;73.24
36138;BME280;67787;50.074;21.904;2023-07-29T06:37:54;98601.70;;;21.49;73.02
36138;BME280;67787;50.074;21.904;2023-07-29T06:40:23;98602.86;;;21.52;72.94
36138;BME280;67787;50.074;21.904;2023-07-29T06:42:50;98608.05;;;21.59;72.92
36138;BME280;67787;50.074;21.904;2023-07-29T06:45:21;98606.23;;;21.63;72.60
36138;BME280;67787;50.074;21.904;2023-07-29T06:47:48;98605.92;;;21.65;72.39
36138;BME280;67787;50.074;21.904;2023-07-29T06:50:16;98602.89;;;21.67;72.42
36138;BME280;67787;50.074;21.904;2023-07-29T06:52:42;98602.98;;;21.72;72.43
36138;BME280;67787;50.074;21.904;2023-07-29T06:55:10;98604.88;;;21.81;72.79
36138;BME280;67787;50.074;21.904;2023-07-29T06:57:37;98599.79;;;21.89;72.60
36138;BME280;67787;50.074;21.904;2023-07-29T07:00:05;98598.80;;;21.91;72.50
36138;BME280;67787;50.074;21.904;2023-07-29T07:02:32;98601.45;;;21.95;72.44
36138;BME280;67787;50.074;21.904;2023-07-29T07:05:00;98603.78;;;22.01;72.81
36138;BME280;67787;50.074;21.904;2023-07-29T07:07:27;98607.72;;;22.04;72.09
36138;BME280;67787;50.074;21.904;2023-07-29T07:09:54;98604.84;;;22.04;72.04
36138;BME280;67787;50.074;21.904;2023-07-29T07:12:21;98604.50;;;22.04;70.68
36138;BME280;67787;50.074;21.904;2023-07-29T07:14:49;98603.02;;;21.97;71.03
36138;BME280;67787;50.074;21.904;2023-07-29T07:17:17;98605.08;;;21.95;71.20
36138;BME280;67787;50.074;21.904;2023-07-29T07:19:45;98604.63;;;21.96;71.26
36138;BME280;67787;50.074;21.904;2023-07-29T07:22:13;98603.14;;;21.97;71.26
36138;BME280;67787;50.074;21.904;2023-07-29T07:24:40;98602.23;;;22.02;71.40
36138;BME280;67787;50.074;21.904;2023-07-29T07:27:07;98600.63;;;22.08;71.44
36138;BME280;67787;50.074;21.904;2023-07-29T07:29:35;98602.30;;;22.14;71.39
36138;BME280;67787;50.074;21.904;2023-07-29T07:32:03;98603.79;;;22.21;71.58
36138;BME280;67787;50.074;21.904;2023-07-29T07:34:32;98603.79;;;22.26;71.20
36138;BME280;67787;50.074;21.904;2023-07-29T07:37:00;98601.89;;;22.30;71.33
36138;BME280;67787;50.074;21.904;2023-07-29T07:39:27;98602.27;;;22.36;70.91
36138;BME280;67787;50.074;21.904;2023-07-29T07:41:54;98601.33;;;22.44;71.13
36138;BME280;67787;50.074;21.904;2023-07-29T07:44:22;98601.39;;;22.55;71.10
36138;BME280;67787;50.074;21.904;2023-07-29T07:46:49;98598.91;;;22.65;70.97
36138;BME280;67787;50.074;21.904;2023-07-29T07:49:16;98600.50;;;22.69;71.04
36138;BME280;67787;50.074;21.904;2023-07-29T07:51:44;98602.80;;;22.72;71.21
36138;BME280;67787;50.074;21.904;2023-07-29T07:54:11;98605.46;;;22.78;71.09
36138;BME280;67787;50.074;21.904;2023-07-29T07:56:37;98599.08;;;22.84;70.92
36138;BME280;67787;50.074;21.904;2023-07-29T07:59:05;98602.89;;;22.88;70.75
36138;BME280;67787;50.074;21.904;2023-07-29T08:01:36;98602.66;;;22.91;70.82
36138;BME280;67787;50.074;21.904;2023-07-29T08:04:04;98602.98;;;22.96;70.57
36138;BME280;67787;50.074;21.904;2023-07-29T08:06:33;98597.63;;;22.96;70.86
36138;BME280;67787;50.074;21.904;2023-07-29T08:09:00;98599.44;;;22.97;70.82
36138;BME280;67787;50.074;21.904;2023-07-29T08:11:27;98600.59;;;22.96;70.23
36138;BME280;67787;50.074;21.904;2023-07-29T08:13:55;98603.17;;;22.93;70.26
36138;BME280;67787;50.074;21.904;2023-07-29T08:16:21;98600.71;;;22.94;70.21
36138;BME280;67787;50.074;21.904;2023-07-29T08:18:51;98595.67;;;22.96;70.34
36138;BME280;67787;50.074;21.904;2023-07-29T08:21:19;98590.68;;;23.00;70.39
36138;BME280;67787;50.074;21.904;2023-07-29T08:23:45;98593.40;;;23.01;69.84
36138;BME280;67787;50.074;21.904;2023-07-29T08:26:16;98591.09;;;22.98;70.20
36138;BME280;67787;50.074;21.904;2023-07-29T08:28:43;98593.02;;;23.00;70.05
36138;BME280;67787;50.074;21.904;2023-07-29T08:31:13;98594.65;;;23.05;70.19
36138;BME280;67787;50.074;21.904;2023-07-29T08:33:40;98593.46;;;23.13;70.11
36138;BME280;67787;50.074;21.904;2023-07-29T08:36:07;98592.44;;;23.19;70.01
36138;BME280;67787;50.074;21.904;2023-07-29T08:38:34;98594.98;;;23.28;70.05
36138;BME280;67787;50.074;21.904;2023-07-29T08:43:39;98595.92;;;23.38;69.64
36138;BME280;67787;50.074;21.904;2023-07-29T08:46:29;98598.23;;;23.41;69.74
36138;BME280;67787;50.074;21.904;2023-07-29T08:48:56;98598.52;;;23.42;69.46
36138;BME280;67787;50.074;21.904;2023-07-29T08:51:23;98599.21;;;23.38;69.39
36138;BME280;67787;50.074;21.904;2023-07-29T08:53:52;98597.98;;;23.37;69.37
36138;BME280;67787;50.074;21.904;2023-07-29T08:56:19;98598.84;;;23.37;69.03
36138;BME280;67787;50.074;21.904;2023-07-29T08:58:46;98595.42;;;23.35;69.15
36138;BME280;67787;50.074;21.904;2023-07-29T09:01:14;98595.16;;;23.34;69.01
36138;BME280;67787;50.074;21.904;2023-07-29T09:03:42;98594.33;;;23.34;69.03
36138;BME280;67787;50.074;21.904;2023-07-29T09:06:11;98592.38;;;23.39;69.16
36138;BME280;67787;50.074;21.904;2023-07-29T09:08:38;98590.04;;;23.43;68.89
36138;BME280;67787;50.074;21.904;2023-07-29T09:11:06;98586.08;;;23.48;69.13
36138;BME280;67787;50.074;21.904;2023-07-29T09:13:33;98587.50;;;23.57;69.22
36138;BME280;67787;50.074;21.904;2023-07-29T09:16:00;98586.50;;;23.64;69.11
36138;BME280;67787;50.074;21.904;2023-07-29T09:18:28;98590.98;;;23.70;68.71
36138;BME280;67787;50.074;21.904;2023-07-29T09:20:59;98588.59;;;23.72;68.60
36138;BME280;67787;50.074;21.904;2023-07-29T09:23:27;98588.80;;;23.74;68.76
36138;BME280;67787;50.074;21.904;2023-07-29T09:26:02;98589.64;;;23.77;68.67
36138;BME280;67787;50.074;21.904;2023-07-29T09:28:39;98585.72;;;23.78;68.58
36138;BME280;67787;50.074;21.904;2023-07-29T09:34:15;98582.68;;;23.95;68.52
36138;BME280;67787;50.074;21.904;2023-07-29T09:36:42;98583.75;;;24.02;68.75
36138;BME280;67787;50.074;21.904;2023-07-29T09:39:12;98582.02;;;24.12;68.53
36138;BME280;67787;50.074;21.904;2023-07-29T09:41:40;98578.34;;;24.21;68.56
36138;BME280;67787;50.074;21.904;2023-07-29T09:44:10;98581.06;;;24.31;68.46
36138;BME280;67787;50.074;21.904;2023-07-29T09:46:45;98576.45;;;24.38;68.19
36138;BME280;67787;50.074;21.904;2023-07-29T09:49:13;98576.55;;;24.44;68.30
36138;BME280;67787;50.074;21.904;2023-07-29T09:51:40;98579.87;;;24.51;68.14
36138;BME280;67787;50.074;21.904;2023-07-29T09:54:08;98574.84;;;24.58;68.17
36138;BME280;67787;50.074;21.904;2023-07-29T09:56:46;98576.33;;;24.59;68.12
36138;BME280;67787;50.074;21.904;2023-07-29T09:59:20;98574.54;;;24.59;67.98
36138;BME280;67787;50.074;21.904;2023-07-29T10:02:49;98567.47;;;24.57;67.83
36138;BME280;67787;50.074;21.904;2023-07-29T10:05:21;98569.40;;;24.57;67.59
36138;BME280;67787;50.074;21.904;2023-07-29T10:07:50;98570.02;;;24.61;67.72
36138;BME280;67787;50.074;21.904;2023-07-29T10:10:21;98565.60;;;24.67;67.66
36138;BME280;67787;50.074;21.904;2023-07-29T10:12:52;98567.17;;;24.77;67.71
36138;BME280;67787;50.074;21.904;2023-07-29T10:15:20;98567.31;;;24.84;67.34
36138;BME280;67787;50.074;21.904;2023-07-29T10:17:50;98562.52;;;24.87;67.27
36138;BME280;67787;50.074;21.904;2023-07-29T10:20:18;98562.68;;;24.93;67.32
36138;BME280;67787;50.074;21.904;2023-07-29T10:22:49;98563.83;;;25.00;66.53
36138;BME280;67787;50.074;21.904;2023-07-29T10:25:24;98562.30;;;24.97;66.84
36138;BME280;67787;50.074;21.904;2023-07-29T10:28:00;98564.06;;;24.94;66.76
36138;BME280;67787;50.074;21.904;2023-07-29T10:31:10;98564.45;;;24.92;67.00
36138;BME280;67787;50.074;21.904;2023-07-29T10:33:42;98566.30;;;24.91;66.92
36138;BME280;67787;50.074;21.904;2023-07-29T10:36:14;98562.42;;;24.89;66.95
36138;BME280;67787;50.074;21.904;2023-07-29T10:38:41;98560.86;;;24.89;66.93
36138;BME280;67787;50.074;21.904;2023-07-29T10:41:08;98555.29;;;24.92;66.97
36138;BME280;67787;50.074;21.904;2023-07-29T10:43:38;98550.73;;;24.92;66.94
36138;BME280;67787;50.074;21.904;2023-07-29T10:46:23;98547.50;;;24.93;66.81
36138;BME280;67787;50.074;21.904;2023-07-29T10:48:57;98545.45;;;24.92;66.71
36138;BME280;67787;50.074;21.904;2023-07-29T10:56:30;98541.86;;;24.92;66.56
36138;BME280;67787;50.074;21.904;2023-07-29T10:59:37;98542.47;;;25.03;66.66
36138;BME280;67787;50.074;21.904;2023-07-29T11:05:21;98536.38;;;25.19;66.30
36138;BME280;67787;50.074;21.904;2023-07-29T11:07:49;98533.83;;;25.19;66.30
36138;BME280;67787;50.074;21.904;2023-07-29T11:10:17;98533.77;;;25.21;66.19
36138;BME280;67787;50.074;21.904;2023-07-29T11:12:49;98529.29;;;25.22;66.15
36138;BME280;67787;50.074;21.904;2023-07-29T11:15:24;98530.70;;;25.23;66.11
36138;BME280;67787;50.074;21.904;2023-07-29T11:17:58;98530.47;;;25.30;66.41
36138;BME280;67787;50.074;21.904;2023-07-29T11:20:27;98526.82;;;25.36;65.90
36138;BME280;67787;50.074;21.904;2023-07-29T11:23:03;98524.09;;;25.39;65.98
36138;BME280;67787;50.074;21.904;2023-07-29T11:25:31;98527.59;;;25.43;65.75
36138;BME280;67787;50.074;21.904;2023-07-29T11:28:00;98528.71;;;25.45;65.67
36138;BME280;67787;50.074;21.904;2023-07-29T11:30:32;98529.48;;;25.49;65.72
36138;BME280;67787;50.074;21.904;2023-07-29T11:33:00;98531.10;;;25.51;65.91
36138;BME280;67787;50.074;21.904;2023-07-29T11:35:27;98531.26;;;25.56;65.83
36138;BME280;67787;50.074;21.904;2023-07-29T11:37:56;98528.65;;;25.62;65.74
36138;BME280;67787;50.074;21.904;2023-07-29T11:40:24;98527.64;;;25.68;65.67
36138;BME280;67787;50.074;21.904;2023-07-29T11:42:52;98522.13;;;25.75;65.63
36138;BME280;67787;50.074;21.904;2023-07-29T11:45:21;98522.25;;;25.80;65.63
36138;BME280;67787;50.074;21.904;2023-07-29T11:48:33;98525.91;;;25.82;65.42
36138;BME280;67787;50.074;21.904;2023-07-29T11:51:01;98520.61;;;25.84;65.34
36138;BME280;67787;50.074;21.904;2023-07-29T11:53:31;98520.70;;;25.83;65.05
36138;BME280;67787;50.074;21.904;2023-07-29T11:56:03;98515.77;;;25.82;65.04
36138;BME280;67787;50.074;21.904;2023-07-29T11:59:10;98519.05;;;25.81;65.09
36138;BME280;67787;50.074;21.904;2023-07-29T12:10:51;98514.19;;;25.85;64.65
36138;BME280;67787;50.074;21.904;2023-07-29T12:17:07;98505.56;;;25.86;64.33
36138;BME280;67787;50.074;21.904;2023-07-29T12:19:36;98507.77;;;25.87;64.50
36138;BME280;67787;50.074;21.904;2023-07-29T12:23:00;98507.86;;;25.93;64.40
36138;BME280;67787;50.074;21.904;2023-07-29T12:25:35;98502.52;;;26.03;64.59
36138;BME280;67787;50.074;21.904;2023-07-29T12:32:03;98498.61;;;26.14;64.05
36138;BME280;67787;50.074;21.904;2023-07-29T12:34:57;98495.39;;;26.18;63.93
36138;BME280;67787;50.074;21.904;2023-07-29T12:37:39;98496.77;;;26.14;63.85
36138;BME280;67787;50.074;21.904;2023-07-29T12:40:50;98504.09;;;26.05;63.91
